createdAt,value
2022-09-23T00:01:20.483Z,0.05
2022-09-23T00:03:48.908Z,0.10
2022-09-23T00:06:19.469Z,0.20
2022-09-23T00:08:47.355Z,0.85
2022-09-23T00:11:20.954Z,4.60
2022-09-23T00:13:51.782Z,0.20
2022-09-23T00:16:22.586Z,0.20
2022-09-23T00:18:50.402Z,0.70
2022-09-23T00:21:19.239Z,0.00
2022-09-23T00:23:47.601Z,0.20
2022-09-23T00:26:17.326Z,0.52
2022-09-23T00:28:45.366Z,0.20
2022-09-23T00:31:22.278Z,0.45
2022-09-23T00:33:57.605Z,0.20
2022-09-23T00:36:26.521Z,0.00
2022-09-23T00:38:54.765Z,0.00
2022-09-23T00:41:22.633Z,0.00
2022-09-23T00:43:50.458Z,0.10
2022-09-23T00:46:22.164Z,0.10
2022-09-23T00:48:54.459Z,0.00
2022-09-23T00:51:24.401Z,0.20
2022-09-23T00:53:52.853Z,0.20
2022-09-23T00:56:21.512Z,0.37
2022-09-23T00:58:49.773Z,0.00
2022-09-23T01:01:18.223Z,0.00
2022-09-23T01:03:46.058Z,0.00
2022-09-23T01:06:14.084Z,0.10
2022-09-23T01:08:44.056Z,0.08
2022-09-23T01:11:23.725Z,0.15
2022-09-23T01:14:10.423Z,0.00
2022-09-23T01:16:45.664Z,0.00
2022-09-23T01:19:32.052Z,0.25
2022-09-23T01:22:23.932Z,0.00
2022-09-23T01:25:02.057Z,0.13
2022-09-23T01:28:08.997Z,0.10
2022-09-23T01:30:58.439Z,0.00
2022-09-23T01:33:55.246Z,0.00
2022-09-23T01:36:29.068Z,0.05
2022-09-23T01:39:13.231Z,0.17
2022-09-23T01:41:56.376Z,0.20
2022-09-23T01:44:51.592Z,0.00
2022-09-23T01:47:24.426Z,0.28
2022-09-23T01:50:00.437Z,0.10
2022-09-23T01:52:35.692Z,0.10
2022-09-23T01:55:12.074Z,0.00
2022-09-23T01:57:57.784Z,0.82
2022-09-23T02:00:27.128Z,0.20
2022-09-23T02:03:02.265Z,0.22
2022-09-23T02:05:34.553Z,0.30
2022-09-23T02:08:13.276Z,0.35
2022-09-23T02:10:45.197Z,0.00
2022-09-23T02:13:23.747Z,0.13
2022-09-23T02:15:54.560Z,0.25
2022-09-23T02:18:25.328Z,0.95
2022-09-23T02:20:56.121Z,0.00
2022-09-23T02:23:35.487Z,0.00
2022-09-23T02:26:08.351Z,0.10
2022-09-23T02:29:10.351Z,0.28
2022-09-23T02:32:00.414Z,0.10
2022-09-23T02:34:48.624Z,0.20
2022-09-23T02:37:31.547Z,0.00
2022-09-23T02:40:09.043Z,0.03
2022-09-23T02:42:45.979Z,0.00
2022-09-23T02:45:13.966Z,0.10
2022-09-23T02:47:42.665Z,0.30
2022-09-23T02:50:10.339Z,0.05
2022-09-23T02:52:38.275Z,0.00
2022-09-23T02:55:06.811Z,0.15
2022-09-23T02:57:34.816Z,0.00
2022-09-23T03:00:03.521Z,0.00
2022-09-23T03:02:31.146Z,0.00
2022-09-23T03:05:10.887Z,0.28
2022-09-23T03:08:00.716Z,0.28
2022-09-23T03:10:37.716Z,0.00
2022-09-23T03:13:28.719Z,0.37
2022-09-23T03:16:00.173Z,0.10
2022-09-23T03:18:44.871Z,0.10
2022-09-23T03:21:32.698Z,0.00
2022-09-23T03:24:03.126Z,0.05
2022-09-23T03:26:33.625Z,0.00
2022-09-23T03:29:07.323Z,0.10
2022-09-23T03:31:36.761Z,0.00
2022-09-23T03:34:10.456Z,0.10
2022-09-23T03:36:45.195Z,0.30
2022-09-23T03:39:24.176Z,0.28
2022-09-23T03:41:52.941Z,0.08
2022-09-23T03:44:24.915Z,0.13
2022-09-23T03:46:52.527Z,0.10
2022-09-23T03:49:25.086Z,0.10
2022-09-23T03:51:53.867Z,0.10
2022-09-23T03:54:21.692Z,0.00
2022-09-23T03:56:49.298Z,0.00
2022-09-23T03:59:17.415Z,0.00
2022-09-23T04:01:45.115Z,0.40
2022-09-23T04:04:12.982Z,3.78
2022-09-23T04:06:40.561Z,2.10
2022-09-23T04:09:08.743Z,1.85
2022-09-23T04:11:36.792Z,1.85
2022-09-23T04:14:04.462Z,3.30
2022-09-23T04:16:32.096Z,4.07
2022-09-23T04:18:59.981Z,2.30
2022-09-23T04:21:27.568Z,0.20
2022-09-23T04:23:55.277Z,0.40
2022-09-23T04:26:23.183Z,0.55
2022-09-23T04:28:50.746Z,0.43
2022-09-23T04:31:18.401Z,0.68
2022-09-23T04:33:46.388Z,0.20
2022-09-23T04:36:14.053Z,0.20
2022-09-23T04:38:45.963Z,1.10
2022-09-23T04:41:14.171Z,1.17
2022-09-23T04:43:42.290Z,0.00
2022-09-23T04:46:11.953Z,0.00
2022-09-23T04:48:42.787Z,0.00
2022-09-23T04:51:16.150Z,0.10
2022-09-23T04:53:45.716Z,0.45
2022-09-23T04:56:16.695Z,0.22
2022-09-23T04:58:44.746Z,0.40
2022-09-23T05:01:20.997Z,0.30
2022-09-23T05:03:49.189Z,0.32
2022-09-23T05:06:19.529Z,0.30
2022-09-23T05:08:53.314Z,0.10
2022-09-23T05:11:22.414Z,0.37
2022-09-23T05:13:52.149Z,0.25
2022-09-23T05:16:20.589Z,0.00
2022-09-23T05:18:49.356Z,0.30
2022-09-23T05:21:20.264Z,0.10
2022-09-23T05:23:50.087Z,0.00
2022-09-23T05:26:17.802Z,0.00
2022-09-23T05:28:45.484Z,0.37
2022-09-23T05:31:20.354Z,0.00
2022-09-23T05:33:52.674Z,0.85
2022-09-23T05:36:24.915Z,0.13
2022-09-23T05:38:52.906Z,0.57
2022-09-23T05:41:21.760Z,0.30
2022-09-23T05:43:50.648Z,0.35
2022-09-23T05:46:21.403Z,0.65
2022-09-23T05:48:49.477Z,0.68
2022-09-23T05:51:22.003Z,0.20
2022-09-23T05:53:51.318Z,0.98
2022-09-23T05:56:20.980Z,0.62
2022-09-23T05:58:49.869Z,0.13
2022-09-23T06:01:20.286Z,0.37
2022-09-23T06:03:49.008Z,1.63
2022-09-23T06:06:18.296Z,0.60
2022-09-23T06:08:46.624Z,0.20
2022-09-23T06:11:14.515Z,0.15
2022-09-23T06:13:42.145Z,0.15
2022-09-23T06:16:11.861Z,0.10
2022-09-23T06:18:41.304Z,0.03
2022-09-23T06:21:10.621Z,0.10
2022-09-23T06:23:41.269Z,0.15
2022-09-23T06:28:39.209Z,0.05
2022-09-23T06:31:13.414Z,0.52
2022-09-23T06:33:42.636Z,1.05
2022-09-23T06:36:11.067Z,0.08
2022-09-23T06:38:40.526Z,0.35
2022-09-23T06:41:08.491Z,0.00
2022-09-23T06:43:36.055Z,0.45
2022-09-23T06:46:05.515Z,0.08
2022-09-23T06:48:34.219Z,0.10
2022-09-23T06:51:03.898Z,0.43
2022-09-23T06:53:31.836Z,0.10
2022-09-23T06:56:03.917Z,0.00
2022-09-23T06:58:33.380Z,0.17
2022-09-23T07:01:07.130Z,0.30
2022-09-23T07:03:35.674Z,0.00
2022-09-23T07:06:04.354Z,1.15
2022-09-23T07:08:32.477Z,1.15
2022-09-23T07:11:02.606Z,0.00
2022-09-23T07:13:30.957Z,0.00
2022-09-23T07:15:59.456Z,0.30
2022-09-23T07:18:30.974Z,0.73
2022-09-23T07:21:15.565Z,0.30
2022-09-23T07:23:45.012Z,0.00
2022-09-23T07:26:13.732Z,0.20
2022-09-23T07:28:41.375Z,0.10
2022-09-23T07:31:14.783Z,0.82
2022-09-23T07:33:43.335Z,0.60
2022-09-23T07:36:16.229Z,0.47
2022-09-23T07:38:45.894Z,0.22
2022-09-23T07:41:16.968Z,0.45
2022-09-23T07:43:45.564Z,0.68
2022-09-23T07:46:15.773Z,0.08
2022-09-23T07:48:44.611Z,0.03
2022-09-23T07:51:18.573Z,0.10
2022-09-23T07:53:47.576Z,0.22
2022-09-23T07:56:19.697Z,0.70
2022-09-23T07:58:49.089Z,0.10
2022-09-23T08:01:16.947Z,0.17
2022-09-23T08:03:45.509Z,0.45
2022-09-23T08:06:13.642Z,0.03
2022-09-23T08:08:41.537Z,0.65
2022-09-23T08:11:11.245Z,0.88
2022-09-23T08:13:39.017Z,0.15
2022-09-23T08:16:06.774Z,0.40
2022-09-23T08:18:34.889Z,0.20
2022-09-23T08:21:02.699Z,0.30
2022-09-23T08:23:30.278Z,0.43
2022-09-23T08:26:02.660Z,0.10
2022-09-23T08:28:30.752Z,0.17
2022-09-23T08:30:59.231Z,0.20
2022-09-23T08:33:27.523Z,0.13
2022-09-23T08:36:01.857Z,0.17
2022-09-23T08:38:30.329Z,0.30
2022-09-23T08:41:32.034Z,0.30
2022-09-23T08:44:03.883Z,0.03
2022-09-23T08:46:35.341Z,0.30
2022-09-23T08:49:04.835Z,0.00
2022-09-23T08:51:45.847Z,0.10
2022-09-23T08:54:16.533Z,0.05
2022-09-23T08:56:48.943Z,0.10
2022-09-23T08:59:39.447Z,0.45
2022-09-23T09:02:23.157Z,0.10
2022-09-23T09:04:54.568Z,0.35
2022-09-23T09:07:36.278Z,0.30
2022-09-23T09:10:05.349Z,0.10
2022-09-23T09:12:37.875Z,0.40
2022-09-23T09:15:10.007Z,0.47
2022-09-23T09:17:40.096Z,0.13
2022-09-23T09:20:15.811Z,0.00
2022-09-23T09:22:55.088Z,0.50
2022-09-23T09:25:41.234Z,0.40
2022-09-23T09:28:41.584Z,0.22
2022-09-23T09:31:24.333Z,1.08
2022-09-23T09:34:02.702Z,0.45
2022-09-23T09:36:40.074Z,0.50
2022-09-23T09:39:11.850Z,0.25
2022-09-23T09:41:41.946Z,0.45
2022-09-23T09:44:25.983Z,0.17
2022-09-23T09:47:15.072Z,0.28
2022-09-23T09:50:00.528Z,0.62
2022-09-23T09:52:29.434Z,0.40
2022-09-23T09:55:12.726Z,0.32
2022-09-23T09:58:02.791Z,0.25
2022-09-23T10:00:30.467Z,0.50
2022-09-23T10:03:03.631Z,0.30
2022-09-23T10:05:51.258Z,0.00
2022-09-23T10:08:34.018Z,0.40
2022-09-23T10:11:12.987Z,0.00
2022-09-23T10:13:42.011Z,0.13
2022-09-23T10:16:09.617Z,0.20
2022-09-23T10:18:38.284Z,0.37
2022-09-23T10:21:11.831Z,0.30
2022-09-23T10:23:42.230Z,0.20
2022-09-23T10:26:11.428Z,0.13
2022-09-23T10:28:50.171Z,0.40
2022-09-23T10:31:35.276Z,0.52
2022-09-23T10:34:23.310Z,0.20
2022-09-23T10:37:03.600Z,0.10
2022-09-23T10:39:31.416Z,0.40
2022-09-23T10:42:05.186Z,0.20
2022-09-23T10:44:45.930Z,0.30
2022-09-23T10:47:32.090Z,0.10
2022-09-23T10:50:23.942Z,0.30
2022-09-23T10:53:09.836Z,0.20
2022-09-23T10:55:47.469Z,0.20
2022-09-23T10:58:56.143Z,0.20
2022-09-23T11:01:48.816Z,0.10
2022-09-23T11:04:44.291Z,0.25
2022-09-23T11:08:00.084Z,0.28
2022-09-23T11:10:58.959Z,0.20
2022-09-23T11:13:54.731Z,0.28
2022-09-23T11:16:39.253Z,0.30
2022-09-23T11:19:25.653Z,0.43
2022-09-23T11:21:56.269Z,0.10
2022-09-23T11:24:24.459Z,0.32
2022-09-23T11:26:52.279Z,0.30
2022-09-23T11:29:47.029Z,0.13
2022-09-23T11:32:14.564Z,0.52
2022-09-23T11:34:45.354Z,0.00
2022-09-23T11:37:20.357Z,0.50
2022-09-23T11:39:57.606Z,0.10
2022-09-23T11:42:41.076Z,0.60
2022-09-23T11:45:16.508Z,0.13
2022-09-23T11:47:48.914Z,0.70
2022-09-23T11:50:26.008Z,0.30
2022-09-23T11:52:57.860Z,0.85
2022-09-23T11:55:28.784Z,0.43
2022-09-23T12:00:27.092Z,0.30
2022-09-23T12:03:07.099Z,0.32
2022-09-23T12:06:01.574Z,0.10
2022-09-23T12:08:36.677Z,0.32
2022-09-23T12:11:04.268Z,0.22
2022-09-23T12:14:00.685Z,0.20
2022-09-23T12:16:48.711Z,0.20
2022-09-23T12:19:27.662Z,0.10
2022-09-23T12:22:14.926Z,0.30
2022-09-23T12:25:07.574Z,0.30
2022-09-23T12:27:38.037Z,0.10
2022-09-23T12:30:17.089Z,0.28
2022-09-23T12:32:45.224Z,0.22
2022-09-23T12:35:31.271Z,0.10
2022-09-23T12:38:02.344Z,0.88
2022-09-23T12:40:35.134Z,0.30
2022-09-23T12:43:02.924Z,0.30
2022-09-23T12:45:30.786Z,0.30
2022-09-23T12:48:00.056Z,0.32
2022-09-23T12:50:47.482Z,0.32
2022-09-23T12:53:33.597Z,0.08
2022-09-23T12:56:19.692Z,0.05
2022-09-23T12:58:47.556Z,0.22
2022-09-23T13:01:15.334Z,0.05
2022-09-23T13:04:01.115Z,0.30
2022-09-23T13:06:44.031Z,1.05
2022-09-23T13:09:17.561Z,0.52
2022-09-23T13:11:46.047Z,0.30
2022-09-23T13:14:17.276Z,0.25
2022-09-23T13:16:45.761Z,0.50
2022-09-23T13:19:27.397Z,0.45
2022-09-23T13:22:06.989Z,0.40
2022-09-23T13:24:41.032Z,0.35
2022-09-23T13:27:15.037Z,0.60
2022-09-23T13:30:06.044Z,0.62
2022-09-23T13:32:37.532Z,0.45
2022-09-23T13:35:24.881Z,0.77
2022-09-23T13:37:53.239Z,0.32
2022-09-23T13:40:26.407Z,0.37
2022-09-23T13:43:03.466Z,0.30
2022-09-23T13:45:31.617Z,0.20
2022-09-23T13:48:09.031Z,0.30
2022-09-23T13:50:38.667Z,0.15
2022-09-23T13:53:10.772Z,0.27
2022-09-23T13:55:39.266Z,0.20
2022-09-23T13:58:22.084Z,0.57
2022-09-23T14:00:50.663Z,0.20
2022-09-23T14:03:27.109Z,0.40
2022-09-23T14:05:55.722Z,0.10
2022-09-23T14:08:24.018Z,0.10
2022-09-23T14:10:51.971Z,0.10
2022-09-23T14:13:26.322Z,0.65
2022-09-23T14:15:56.620Z,0.40
2022-09-23T14:18:29.184Z,0.50
2022-09-23T14:20:57.250Z,0.45
2022-09-23T14:23:24.903Z,0.60
2022-09-23T14:25:53.881Z,0.20
2022-09-23T14:28:23.534Z,0.75
2022-09-23T14:30:53.116Z,0.20
2022-09-23T14:33:30.972Z,0.23
2022-09-23T14:36:07.644Z,0.37
2022-09-23T14:38:35.980Z,0.22
2022-09-23T14:41:03.777Z,0.40
2022-09-23T14:43:31.590Z,0.62
2022-09-23T14:45:59.894Z,0.57
2022-09-23T14:48:33.033Z,0.37
2022-09-23T14:51:06.070Z,0.20
2022-09-23T14:53:39.188Z,0.82
2022-09-23T14:56:07.023Z,1.15
2022-09-23T14:58:53.286Z,0.37
2022-09-23T15:01:33.451Z,0.88
2022-09-23T15:04:13.350Z,0.30
2022-09-23T15:07:08.723Z,0.50
2022-09-23T15:09:38.923Z,0.45
2022-09-23T15:12:18.888Z,0.68
2022-09-23T15:14:51.380Z,0.70
2022-09-23T15:17:34.873Z,0.62
2022-09-23T15:20:05.735Z,0.17
2022-09-23T15:22:45.863Z,0.20
2022-09-23T15:25:33.001Z,0.43
2022-09-23T15:28:08.521Z,0.20
2022-09-23T15:30:36.802Z,0.88
2022-09-23T15:33:05.380Z,0.55
2022-09-23T15:35:33.364Z,0.30
2022-09-23T15:38:01.426Z,0.62
2022-09-23T15:40:34.586Z,0.40
2022-09-23T15:43:31.002Z,0.50
2022-09-23T15:46:03.776Z,4.87
2022-09-23T15:48:39.855Z,3.10
2022-09-23T15:51:08.083Z,1.92
2022-09-23T15:53:38.489Z,2.17
2022-09-23T15:56:06.348Z,1.55
2022-09-23T15:58:34.627Z,1.17
2022-09-23T16:01:03.225Z,1.77
2022-09-23T16:03:31.536Z,2.22
2022-09-23T16:06:01.190Z,2.60
2022-09-23T16:08:31.380Z,1.35
2022-09-23T16:10:59.383Z,2.72
2022-09-23T16:13:27.134Z,2.28
2022-09-23T16:15:56.085Z,1.45
2022-09-23T16:18:24.240Z,2.45
2022-09-23T16:20:51.848Z,2.35
2022-09-23T16:23:34.229Z,2.47
2022-09-23T16:26:05.441Z,1.48
2022-09-23T16:28:33.337Z,1.80
2022-09-23T16:31:00.913Z,2.55
2022-09-23T16:33:28.887Z,1.58
2022-09-23T16:35:59.656Z,1.83
2022-09-23T16:38:27.842Z,2.87
2022-09-23T16:40:56.509Z,1.67
2022-09-23T16:43:24.324Z,1.33
2022-09-23T16:45:51.954Z,1.17
2022-09-23T16:48:19.961Z,0.90
2022-09-23T16:50:48.596Z,0.65
2022-09-23T16:53:16.244Z,1.25
2022-09-23T16:55:44.168Z,0.85
2022-09-23T16:58:11.812Z,1.30
2022-09-23T17:00:39.524Z,1.40
2022-09-23T17:03:07.845Z,1.70
2022-09-23T17:05:35.508Z,3.12
2022-09-23T17:08:03.276Z,2.47
2022-09-23T17:10:31.170Z,2.33
2022-09-23T17:12:58.916Z,2.33
2022-09-23T17:15:26.594Z,1.20
2022-09-23T17:17:54.540Z,1.65
2022-09-23T17:20:22.279Z,1.45
2022-09-23T17:22:49.974Z,0.77
2022-09-23T17:25:17.927Z,1.20
2022-09-23T17:27:47.808Z,0.47
2022-09-23T17:30:15.603Z,1.42
2022-09-23T17:32:43.442Z,1.23
2022-09-23T17:35:12.142Z,2.15
2022-09-23T17:37:39.685Z,0.90
2022-09-23T17:40:08.316Z,0.75
2022-09-23T17:42:39.831Z,0.75
2022-09-23T17:45:09.256Z,0.90
2022-09-23T17:47:41.285Z,1.12
2022-09-23T17:50:09.630Z,2.17
2022-09-23T17:52:37.223Z,1.23
2022-09-23T17:55:05.876Z,0.73
2022-09-23T17:57:33.785Z,0.93
2022-09-23T18:00:01.545Z,2.25
2022-09-23T18:02:39.177Z,1.58
2022-09-23T18:05:07.936Z,1.87
2022-09-23T18:07:37.922Z,1.50
2022-09-23T18:10:07.172Z,1.42
2022-09-23T18:12:35.153Z,1.42
2022-09-23T18:15:02.988Z,2.12
2022-09-23T18:17:30.686Z,1.05
2022-09-23T18:19:59.227Z,0.30
2022-09-23T18:22:26.835Z,1.35
2022-09-23T18:24:54.492Z,1.70
2022-09-23T18:27:22.962Z,0.93
2022-09-23T18:29:53.143Z,2.47
2022-09-23T18:32:20.848Z,2.10
2022-09-23T18:34:48.912Z,0.90
2022-09-23T18:37:16.616Z,1.52
2022-09-23T18:39:44.651Z,1.45
2022-09-23T18:42:12.847Z,0.68
2022-09-23T18:44:41.776Z,1.30
2022-09-23T18:47:09.528Z,0.93
2022-09-23T18:49:37.464Z,1.10
2022-09-23T18:52:05.068Z,0.65
2022-09-23T18:54:32.718Z,0.43
2022-09-23T18:57:00.558Z,0.95
2022-09-23T18:59:29.866Z,1.02
2022-09-23T19:01:57.892Z,0.22
2022-09-23T19:04:27.006Z,1.75
2022-09-23T19:06:55.449Z,1.00
2022-09-23T19:09:23.558Z,0.47
2022-09-23T19:11:52.287Z,0.50
2022-09-23T19:14:20.233Z,1.02
2022-09-23T19:16:47.845Z,0.32
2022-09-23T19:19:16.491Z,0.77
2022-09-23T19:21:44.153Z,0.95
2022-09-23T19:24:12.287Z,1.42
2022-09-23T19:26:40.774Z,0.60
2022-09-23T19:29:13.707Z,0.47
2022-09-23T19:31:42.018Z,0.68
2022-09-23T19:34:14.770Z,0.20
2022-09-23T19:36:44.230Z,0.80
2022-09-23T19:39:14.794Z,0.30
2022-09-23T19:41:43.318Z,1.40
2022-09-23T19:44:11.272Z,0.77
2022-09-23T19:46:40.257Z,0.90
2022-09-23T19:49:08.438Z,0.88
2022-09-23T19:51:36.168Z,0.62
2022-09-23T19:54:04.986Z,0.68
2022-09-23T19:56:33.579Z,0.60
2022-09-23T19:59:01.738Z,1.58
2022-09-23T20:01:30.192Z,1.08
2022-09-23T20:03:58.655Z,0.75
2022-09-23T20:06:29.850Z,1.05
2022-09-23T20:08:58.843Z,1.23
2022-09-23T20:11:28.523Z,2.03
2022-09-23T20:13:59.624Z,2.10
2022-09-23T20:16:35.335Z,1.52
2022-09-23T20:19:06.923Z,1.87
2022-09-23T20:21:35.083Z,2.33
2022-09-23T20:24:03.540Z,0.70
2022-09-23T20:26:31.225Z,1.40
2022-09-23T20:28:59.256Z,1.15
2022-09-23T20:31:27.478Z,0.60
2022-09-23T20:33:56.692Z,0.45
2022-09-23T20:36:28.972Z,1.15
2022-09-23T20:38:58.527Z,1.30
2022-09-23T20:41:30.062Z,0.80
2022-09-23T20:43:58.576Z,0.70
2022-09-23T20:46:27.378Z,0.20
2022-09-23T20:48:55.181Z,0.62
2022-09-23T20:51:23.687Z,1.87
2022-09-23T20:53:52.174Z,0.25
2022-09-23T20:56:20.868Z,1.20
2022-09-23T20:58:48.859Z,0.90
2022-09-23T21:01:17.331Z,0.90
2022-09-23T21:03:47.158Z,2.17
2022-09-23T21:06:16.181Z,2.72
2022-09-23T21:08:44.218Z,1.23
2022-09-23T21:11:14.481Z,2.42
2022-09-23T21:13:46.431Z,2.08
2022-09-23T21:16:15.509Z,2.53
2022-09-23T21:18:44.127Z,1.05
2022-09-23T21:21:12.945Z,1.10
2022-09-23T21:23:42.164Z,1.27
2022-09-23T21:26:12.329Z,1.73
2022-09-23T21:28:42.384Z,1.83
2022-09-23T21:31:16.138Z,4.47
2022-09-23T21:33:43.724Z,1.92
2022-09-23T21:36:11.639Z,0.62
2022-09-23T21:38:39.496Z,1.25
2022-09-23T21:41:08.519Z,1.12
2022-09-23T21:43:38.315Z,3.62
2022-09-23T21:46:08.564Z,1.05
2022-09-23T21:48:38.336Z,1.73
2022-09-23T21:51:10.862Z,1.27
2022-09-23T21:53:39.245Z,0.73
2022-09-23T21:56:12.367Z,0.75
2022-09-23T21:58:42.048Z,0.62
2022-09-23T22:01:11.224Z,0.47
2022-09-23T22:03:39.474Z,1.50
2022-09-23T22:06:12.480Z,0.62
2022-09-23T22:08:42.138Z,0.70
2022-09-23T22:11:12.156Z,0.95
2022-09-23T22:13:40.004Z,1.75
2022-09-23T22:16:07.682Z,1.40
2022-09-23T22:18:35.448Z,0.77
2022-09-23T22:21:03.385Z,2.12
2022-09-23T22:23:31.007Z,2.35
2022-09-23T22:26:03.054Z,1.70
2022-09-23T22:28:32.618Z,1.02
2022-09-23T22:31:00.238Z,1.25
2022-09-23T22:33:27.879Z,1.27
2022-09-23T22:36:02.348Z,0.77
2022-09-23T22:38:30.019Z,0.10
2022-09-23T22:40:58.324Z,0.85
2022-09-23T22:43:26.001Z,0.40
2022-09-23T22:45:53.589Z,0.70
2022-09-23T22:48:21.613Z,0.20
2022-09-23T22:50:49.193Z,0.15
2022-09-23T22:53:16.751Z,0.93
2022-09-23T22:55:44.601Z,0.15
2022-09-23T22:58:31.222Z,0.20
2022-09-23T23:00:59.905Z,0.28
2022-09-23T23:03:27.601Z,0.75
2022-09-23T23:05:59.680Z,1.30
2022-09-23T23:08:31.168Z,0.22
2022-09-23T23:11:06.490Z,0.08
2022-09-23T23:13:34.469Z,0.28
2022-09-23T23:16:06.652Z,0.20
2022-09-23T23:18:36.496Z,0.10
2022-09-23T23:21:13.441Z,0.95
2022-09-23T23:23:46.549Z,0.25
2022-09-23T23:26:20.022Z,0.62
2022-09-23T23:28:49.091Z,0.43
2022-09-23T23:31:18.873Z,0.30
2022-09-23T23:33:47.049Z,1.05
2022-09-23T23:36:17.534Z,0.75
2022-09-23T23:38:46.572Z,0.10
2022-09-23T23:41:16.611Z,0.00
2022-09-23T23:43:46.415Z,0.43
2022-09-23T23:46:15.006Z,1.35
2022-09-23T23:48:42.905Z,0.15
2022-09-23T23:51:11.503Z,0.20
2022-09-23T23:53:40.140Z,0.13
2022-09-23T23:56:13.369Z,0.03
2022-09-23T23:58:41.703Z,0.52
